< < Back
Terminal Aerodrome Forecast


Current Version              Previous Versions:   1  2  3  4  5  6  7  8  9  

Terminal Aerodrome Forecast

978
FTUS42 KMLB 282300
TAFDAB
TAF
KDAB 282340Z 2900/2924 34005KT P6SM FEW035
     FM291500 05007KT P6SM FEW040=

Latest METAR

734
SAUS80 KWBC 290000 RRA
MTRDAB
METAR KDAB 282353Z 32007KT 10SM FEW033 11/06 A3029 RMK AO2 SLP256
T01060061 10150 20106 53002


USA.gov is the U.S. government's official web portal to all federal, state and local government web resources and services.